createdAt,value
2022-11-30T00:01:38.538Z,27.23
2022-11-30T00:04:09.382Z,22.73
2022-11-30T00:06:37.875Z,23.50
2022-11-30T00:09:06.222Z,23.38
2022-11-30T00:11:34.572Z,21.42
2022-11-30T00:14:02.912Z,20.98
2022-11-30T00:16:31.457Z,21.95
2022-11-30T00:18:59.852Z,31.77
2022-11-30T00:21:29.562Z,19.67
2022-11-30T00:23:57.968Z,18.48
2022-11-30T00:26:26.356Z,22.03
2022-11-30T00:28:54.925Z,23.98
2022-11-30T00:31:24.947Z,21.23
2022-11-30T00:33:53.418Z,20.13
2022-11-30T00:36:23.726Z,24.10
2022-11-30T00:38:53.809Z,21.50
2022-11-30T00:41:22.867Z,22.33
2022-11-30T00:43:51.301Z,27.77
2022-11-30T00:46:19.697Z,26.77
2022-11-30T00:48:48.247Z,24.97
2022-11-30T00:51:16.643Z,28.40
2022-11-30T00:53:45.372Z,24.37
2022-11-30T00:56:15.482Z,26.83
2022-11-30T00:58:43.907Z,26.93
2022-11-30T01:01:12.291Z,20.83
2022-11-30T01:03:40.734Z,20.90
2022-11-30T01:06:11.078Z,25.75
2022-11-30T01:08:39.764Z,26.45
2022-11-30T01:11:13.668Z,23.38
2022-11-30T01:13:43.623Z,24.88
2022-11-30T01:16:15.755Z,27.73
2022-11-30T01:18:44.956Z,24.08
2022-11-30T01:21:16.360Z,25.38
2022-11-30T01:23:45.499Z,21.55
2022-11-30T01:26:14.803Z,23.60
2022-11-30T01:28:45.572Z,25.48
2022-11-30T01:31:15.738Z,24.05
2022-11-30T01:33:44.237Z,24.17
2022-11-30T01:36:15.075Z,20.70
2022-11-30T01:38:47.177Z,25.02
2022-11-30T01:41:20.028Z,29.48
2022-11-30T01:43:52.643Z,28.08
2022-11-30T01:46:37.555Z,23.90
2022-11-30T01:49:16.114Z,28.15
2022-11-30T01:51:49.235Z,23.35
2022-11-30T01:54:21.653Z,24.27
2022-11-30T01:56:56.543Z,20.65
2022-11-30T01:59:27.569Z,28.70
2022-11-30T02:01:56.570Z,24.55
2022-11-30T02:04:29.752Z,21.35
2022-11-30T02:06:58.783Z,23.77
2022-11-30T02:09:28.573Z,23.27
2022-11-30T02:11:58.346Z,28.90
2022-11-30T02:14:36.303Z,21.50
2022-11-30T02:17:18.858Z,23.15
2022-11-30T02:20:38.014Z,21.13
2022-11-30T02:23:44.127Z,22.10
2022-11-30T02:26:33.501Z,26.40
2022-11-30T02:29:15.024Z,25.02
2022-11-30T02:31:50.719Z,21.95
2022-11-30T02:34:24.737Z,27.70
2022-11-30T02:36:55.474Z,30.02
2022-11-30T02:39:23.939Z,25.98
2022-11-30T02:41:52.380Z,27.40
2022-11-30T02:44:24.030Z,28.50
2022-11-30T02:47:08.834Z,28.40
2022-11-30T02:49:45.640Z,26.10
2022-11-30T02:52:15.521Z,26.65
2022-11-30T02:54:44.464Z,24.42
2022-11-30T02:57:13.793Z,25.30
2022-11-30T02:59:43.679Z,25.25
2022-11-30T03:02:12.087Z,24.27
2022-11-30T03:04:40.419Z,27.67
2022-11-30T03:07:08.780Z,29.88
2022-11-30T03:09:37.133Z,31.02
2022-11-30T03:12:05.879Z,28.05
2022-11-30T03:14:34.267Z,25.98
2022-11-30T03:17:04.145Z,27.48
2022-11-30T03:19:32.498Z,21.70
2022-11-30T03:22:01.003Z,26.98
2022-11-30T03:24:29.369Z,26.15
2022-11-30T03:26:57.999Z,30.48
2022-11-30T03:29:26.394Z,31.48
2022-11-30T03:31:54.864Z,27.33
2022-11-30T03:34:26.579Z,26.30
2022-11-30T03:36:55.271Z,28.77
2022-11-30T03:39:24.233Z,27.48
2022-11-30T03:41:52.976Z,32.15
2022-11-30T03:44:21.346Z,28.60
2022-11-30T03:46:49.764Z,29.17
2022-11-30T03:49:18.183Z,28.05
2022-11-30T03:51:47.911Z,25.67
2022-11-30T03:54:16.252Z,26.83
2022-11-30T03:56:44.592Z,28.95
2022-11-30T03:59:12.905Z,29.30
2022-11-30T04:01:41.488Z,27.33
2022-11-30T04:04:09.884Z,24.95
2022-11-30T04:06:38.288Z,26.98
2022-11-30T04:09:08.387Z,27.25
2022-11-30T04:11:37.027Z,27.15
2022-11-30T04:14:05.532Z,27.13
2022-11-30T04:16:34.016Z,29.40
2022-11-30T04:19:02.545Z,28.20
2022-11-30T04:21:31.020Z,28.50
2022-11-30T04:23:59.388Z,27.92
2022-11-30T04:26:29.185Z,26.75
2022-11-30T04:28:57.529Z,28.92
2022-11-30T04:31:25.919Z,26.42
2022-11-30T04:33:55.278Z,24.63
2022-11-30T04:36:23.686Z,34.70
2022-11-30T04:38:52.091Z,27.38
2022-11-30T04:41:20.446Z,24.02
2022-11-30T04:43:50.253Z,29.63
2022-11-30T04:46:18.746Z,25.63
2022-11-30T04:48:47.167Z,25.30
2022-11-30T04:51:15.507Z,30.08
2022-11-30T04:53:43.862Z,21.75
2022-11-30T04:56:13.164Z,31.55
2022-11-30T04:58:41.668Z,30.80
2022-11-30T05:01:11.946Z,24.15
2022-11-30T05:03:40.314Z,27.35
2022-11-30T05:06:08.973Z,26.10
2022-11-30T05:08:37.347Z,26.30
2022-11-30T05:11:05.963Z,26.73
2022-11-30T05:13:34.325Z,26.60
2022-11-30T05:16:02.773Z,28.75
2022-11-30T05:18:33.543Z,25.83
2022-11-30T05:21:01.885Z,25.45
2022-11-30T05:23:30.553Z,24.08
2022-11-30T05:25:58.949Z,23.33
2022-11-30T05:28:27.372Z,29.15
2022-11-30T05:30:55.804Z,31.15
2022-11-30T05:33:24.124Z,27.63
2022-11-30T05:35:53.810Z,25.98
2022-11-30T05:38:22.200Z,26.02
2022-11-30T05:40:50.557Z,29.90
2022-11-30T05:43:19.702Z,25.48
2022-11-30T05:45:48.043Z,26.85
2022-11-30T05:48:16.371Z,27.35
2022-11-30T05:50:44.815Z,29.67
2022-11-30T05:53:14.567Z,29.20
2022-11-30T05:55:43.547Z,32.53
2022-11-30T05:58:11.977Z,30.23
2022-11-30T06:00:40.411Z,29.73
2022-11-30T06:03:08.863Z,25.67
2022-11-30T06:05:37.481Z,29.08
2022-11-30T06:08:06.353Z,28.45
2022-11-30T06:10:36.621Z,26.67
2022-11-30T06:13:09.762Z,30.27
2022-11-30T06:15:38.317Z,31.42
2022-11-30T06:18:08.178Z,30.52
2022-11-30T06:20:36.531Z,25.02
2022-11-30T06:23:05.272Z,30.15
2022-11-30T06:25:35.237Z,28.40
2022-11-30T06:28:03.646Z,32.70
2022-11-30T06:30:32.147Z,28.98
2022-11-30T06:33:00.519Z,31.75
2022-11-30T06:35:28.926Z,29.17
2022-11-30T06:38:00.525Z,27.98
2022-11-30T06:40:28.921Z,26.33
2022-11-30T06:42:58.725Z,27.77
2022-11-30T06:45:27.089Z,28.13
2022-11-30T06:47:57.092Z,30.52
2022-11-30T06:50:25.751Z,30.90
2022-11-30T06:52:54.173Z,32.40
2022-11-30T06:55:23.213Z,38.80
2022-11-30T06:57:51.729Z,33.72
2022-11-30T07:00:22.312Z,25.23
2022-11-30T07:02:50.672Z,26.80
2022-11-30T07:05:19.125Z,26.77
2022-11-30T07:07:47.541Z,22.20
2022-11-30T07:10:20.110Z,26.45
2022-11-30T07:12:48.818Z,25.52
2022-11-30T07:15:17.697Z,31.52
2022-11-30T07:17:47.460Z,28.67
2022-11-30T07:20:16.291Z,27.95
2022-11-30T07:22:44.709Z,28.83
2022-11-30T07:25:30.502Z,24.52
2022-11-30T07:27:58.951Z,29.15
2022-11-30T07:30:27.399Z,28.50
2022-11-30T07:32:57.241Z,30.02
2022-11-30T07:35:25.623Z,28.00
2022-11-30T07:37:53.944Z,26.20
2022-11-30T07:40:22.389Z,32.05
2022-11-30T07:42:56.743Z,24.08
2022-11-30T07:45:25.078Z,26.63
2022-11-30T07:47:53.426Z,30.23
2022-11-30T07:50:23.230Z,27.42
2022-11-30T07:52:51.648Z,28.27
2022-11-30T07:55:23.559Z,28.45
2022-11-30T07:57:51.922Z,29.70
2022-11-30T08:00:20.759Z,24.10
2022-11-30T08:02:51.725Z,25.05
2022-11-30T08:05:20.286Z,23.95
2022-11-30T08:07:54.284Z,27.05
2022-11-30T08:10:23.670Z,25.80
2022-11-30T08:12:52.284Z,24.42
2022-11-30T08:15:22.320Z,25.50
2022-11-30T08:17:55.227Z,28.10
2022-11-30T08:20:24.394Z,22.55
2022-11-30T08:22:54.330Z,22.65
2022-11-30T08:25:22.738Z,19.67
2022-11-30T08:27:51.092Z,21.55
2022-11-30T08:30:19.713Z,28.15
2022-11-30T08:32:48.070Z,28.92
2022-11-30T08:35:16.926Z,24.42
2022-11-30T08:37:45.372Z,21.42
2022-11-30T08:40:15.833Z,23.58
2022-11-30T08:42:44.232Z,26.52
2022-11-30T08:45:13.222Z,25.05
2022-11-30T08:47:41.607Z,27.08
2022-11-30T08:50:11.271Z,30.13
2022-11-30T08:52:39.655Z,21.92
2022-11-30T08:55:10.032Z,21.02
2022-11-30T08:57:39.801Z,24.88
2022-11-30T09:00:10.390Z,22.48
2022-11-30T09:02:38.988Z,21.42
2022-11-30T09:05:08.406Z,20.80
2022-11-30T09:07:36.945Z,27.15
2022-11-30T09:10:06.315Z,25.67
2022-11-30T09:12:37.232Z,27.45
2022-11-30T09:15:09.959Z,25.90
2022-11-30T09:17:38.512Z,24.48
2022-11-30T09:20:09.527Z,24.38
2022-11-30T09:22:37.924Z,26.10
2022-11-30T09:25:07.470Z,20.83
2022-11-30T09:27:35.859Z,24.98
2022-11-30T09:30:04.697Z,25.67
2022-11-30T09:32:34.491Z,21.05
2022-11-30T09:35:02.945Z,22.85
2022-11-30T09:37:31.328Z,21.92
2022-11-30T09:39:59.976Z,22.92
2022-11-30T09:42:48.450Z,23.05
2022-11-30T09:45:24.432Z,25.35
2022-11-30T09:48:48.340Z,22.80
2022-11-30T09:51:24.749Z,29.92
2022-11-30T09:53:57.982Z,31.88
2022-11-30T09:56:31.413Z,25.65
2022-11-30T09:59:05.926Z,20.63
2022-11-30T10:01:37.606Z,27.88
2022-11-30T10:04:20.620Z,23.02
2022-11-30T10:07:03.605Z,23.02
2022-11-30T10:09:53.197Z,20.73
2022-11-30T10:12:38.855Z,24.63
2022-11-30T10:15:32.894Z,21.67
2022-11-30T10:18:15.236Z,28.08
2022-11-30T10:20:59.759Z,19.10
2022-11-30T10:23:47.916Z,20.52
2022-11-30T10:26:17.811Z,19.02
2022-11-30T10:28:52.661Z,21.13
2022-11-30T10:31:29.623Z,22.02
2022-11-30T10:34:22.353Z,22.42
2022-11-30T10:37:01.523Z,21.27
2022-11-30T10:39:37.791Z,18.60
2022-11-30T10:42:11.716Z,22.02
2022-11-30T10:44:45.227Z,20.02
2022-11-30T10:47:19.850Z,23.83
2022-11-30T10:49:51.335Z,21.23
2022-11-30T10:52:26.338Z,23.83
2022-11-30T10:55:02.447Z,18.77
2022-11-30T10:57:33.538Z,27.90
2022-11-30T11:00:06.990Z,19.10
2022-11-30T11:02:42.531Z,19.63
2022-11-30T11:05:22.227Z,19.83
2022-11-30T11:08:04.698Z,20.88
2022-11-30T11:10:38.443Z,28.60
2022-11-30T11:13:07.587Z,21.05
2022-11-30T11:15:36.872Z,19.55
2022-11-30T11:18:25.378Z,16.73
2022-11-30T11:21:06.753Z,19.60
2022-11-30T11:23:40.168Z,17.73
2022-11-30T11:26:17.129Z,23.30
2022-11-30T11:28:47.704Z,20.52
2022-11-30T11:31:34.784Z,21.20
2022-11-30T11:34:03.750Z,22.30
2022-11-30T11:36:36.844Z,18.70
2022-11-30T11:39:28.279Z,18.83
2022-11-30T11:41:56.709Z,18.65
2022-11-30T11:44:28.091Z,23.88
2022-11-30T11:46:59.565Z,19.55
2022-11-30T11:49:29.986Z,17.38
2022-11-30T11:52:03.541Z,15.65
2022-11-30T11:54:40.591Z,17.80
2022-11-30T11:57:13.238Z,15.35
2022-11-30T11:59:50.434Z,18.08
2022-11-30T12:02:30.796Z,14.45
2022-11-30T12:05:02.826Z,17.73
2022-11-30T12:07:38.340Z,16.50
2022-11-30T12:13:19.696Z,19.38
2022-11-30T12:16:05.735Z,15.60
2022-11-30T12:18:44.823Z,17.13
2022-11-30T12:21:17.598Z,18.13
2022-11-30T12:24:13.080Z,14.65
2022-11-30T12:26:48.705Z,19.25
2022-11-30T12:29:26.427Z,21.90
2022-11-30T12:32:17.348Z,16.30
2022-11-30T12:35:04.191Z,17.63
2022-11-30T12:37:49.823Z,13.10
2022-11-30T12:40:33.989Z,14.77
2022-11-30T12:43:18.575Z,12.50
2022-11-30T12:45:48.805Z,9.35
2022-11-30T12:48:32.777Z,13.05
2022-11-30T12:51:16.027Z,9.52
2022-11-30T12:53:53.995Z,10.02
2022-11-30T12:56:33.471Z,14.75
2022-11-30T12:59:19.505Z,11.65
2022-11-30T13:02:12.845Z,11.88
2022-11-30T13:04:46.458Z,13.77
2022-11-30T13:07:26.866Z,11.98
2022-11-30T13:10:01.929Z,13.35
2022-11-30T13:12:36.385Z,9.38
2022-11-30T13:15:15.887Z,16.70
2022-11-30T13:17:45.712Z,13.68
2022-11-30T13:20:26.149Z,16.05
2022-11-30T13:23:03.211Z,12.23
2022-11-30T13:28:44.165Z,11.50
2022-11-30T13:31:23.058Z,18.77
2022-11-30T13:33:59.706Z,21.98
2022-11-30T13:36:39.753Z,29.38
2022-11-30T13:39:27.120Z,11.68
2022-11-30T13:42:31.490Z,13.40
2022-11-30T13:45:18.861Z,9.10
2022-11-30T13:47:51.491Z,13.63
2022-11-30T13:50:28.263Z,9.13
2022-11-30T13:53:25.007Z,9.52
2022-11-30T13:56:00.615Z,17.88
2022-11-30T13:58:30.447Z,8.25
2022-11-30T14:01:31.750Z,12.25
2022-11-30T14:04:45.259Z,11.05
2022-11-30T14:07:36.262Z,10.48
2022-11-30T14:10:06.104Z,10.98
2022-11-30T14:13:00.211Z,12.90
2022-11-30T14:15:55.258Z,11.35
2022-11-30T14:18:47.218Z,15.50
2022-11-30T14:21:33.149Z,15.45
2022-11-30T14:24:07.888Z,11.45
2022-11-30T14:26:41.474Z,12.10
2022-11-30T14:29:18.838Z,9.95
2022-11-30T14:31:57.976Z,24.92
2022-11-30T14:34:29.987Z,8.73
2022-11-30T14:37:03.735Z,10.05
2022-11-30T14:39:36.251Z,13.10
2022-11-30T14:42:06.813Z,10.93
2022-11-30T14:44:37.669Z,11.40
2022-11-30T14:47:21.088Z,11.38
2022-11-30T14:49:52.264Z,9.60
2022-11-30T14:52:46.047Z,11.55
2022-11-30T14:55:27.891Z,12.82
2022-11-30T14:58:07.661Z,10.05
2022-11-30T15:00:40.803Z,11.57
2022-11-30T15:03:22.078Z,11.07
2022-11-30T15:05:53.981Z,16.02
2022-11-30T15:08:25.268Z,8.63
2022-11-30T15:10:54.867Z,14.15
2022-11-30T15:13:23.272Z,18.02
2022-11-30T15:15:54.689Z,11.52
2022-11-30T15:18:25.501Z,16.45
2022-11-30T15:20:59.031Z,15.80
2022-11-30T15:23:29.366Z,12.18
2022-11-30T15:26:00.700Z,9.52
2022-11-30T15:28:35.120Z,13.68
2022-11-30T15:31:06.759Z,13.85
2022-11-30T15:33:45.663Z,7.80
2022-11-30T15:36:31.494Z,12.38
2022-11-30T15:39:06.993Z,12.32
2022-11-30T15:41:36.456Z,12.60
2022-11-30T15:44:05.421Z,10.38
2022-11-30T15:46:44.253Z,9.43
2022-11-30T15:49:24.538Z,12.77
2022-11-30T15:52:04.702Z,10.30
2022-11-30T15:54:53.207Z,9.85
2022-11-30T15:57:24.162Z,8.32
2022-11-30T16:00:09.200Z,10.73
2022-11-30T16:02:39.373Z,10.45
2022-11-30T16:05:26.107Z,11.43
2022-11-30T16:07:57.312Z,22.17
2022-11-30T16:10:31.486Z,9.25
2022-11-30T16:13:00.107Z,9.20
2022-11-30T16:15:31.016Z,13.63
2022-11-30T16:18:12.290Z,12.18
2022-11-30T16:20:42.678Z,14.95
2022-11-30T16:23:15.814Z,12.27
2022-11-30T16:25:48.848Z,9.95
2022-11-30T16:28:19.759Z,9.43
2022-11-30T16:30:49.914Z,12.02
2022-11-30T16:33:22.418Z,10.95
2022-11-30T16:35:57.382Z,8.88
2022-11-30T16:38:28.075Z,11.15
2022-11-30T16:41:12.646Z,9.50
2022-11-30T16:43:42.370Z,12.80
2022-11-30T16:46:13.722Z,11.02
2022-11-30T16:48:46.282Z,12.13
2022-11-30T16:51:19.358Z,14.65
2022-11-30T16:53:49.233Z,13.43
2022-11-30T16:56:20.650Z,11.05
2022-11-30T16:58:51.803Z,14.13
2022-11-30T17:01:34.500Z,15.30
2022-11-30T17:04:19.923Z,15.85
2022-11-30T17:06:51.136Z,12.88
2022-11-30T17:09:23.737Z,12.20
2022-11-30T17:11:54.587Z,12.75
2022-11-30T17:14:23.414Z,13.07
2022-11-30T17:16:52.828Z,14.57
2022-11-30T17:19:25.781Z,15.80
2022-11-30T17:22:04.478Z,11.38
2022-11-30T17:24:35.143Z,11.20
2022-11-30T17:27:06.681Z,12.82
2022-11-30T17:29:35.551Z,12.25
2022-11-30T17:32:06.935Z,21.33
2022-11-30T17:34:35.892Z,18.05
2022-11-30T17:37:05.178Z,18.38
2022-11-30T17:39:36.425Z,12.20
2022-11-30T17:42:07.597Z,16.73
2022-11-30T17:44:36.188Z,12.80
2022-11-30T17:47:05.358Z,11.75
2022-11-30T17:49:36.366Z,15.02
2022-11-30T17:52:07.164Z,13.15
2022-11-30T17:54:37.438Z,16.88
2022-11-30T17:57:09.948Z,14.90
2022-11-30T17:59:41.045Z,13.85
2022-11-30T18:02:13.852Z,14.13
2022-11-30T18:04:44.123Z,14.98
2022-11-30T18:07:14.305Z,14.88
2022-11-30T18:09:43.999Z,13.30
2022-11-30T18:12:16.039Z,14.88
2022-11-30T18:14:45.588Z,15.15
2022-11-30T18:17:14.944Z,13.10
2022-11-30T18:19:45.265Z,15.23
2022-11-30T18:22:14.750Z,17.50
2022-11-30T18:24:44.680Z,15.27
2022-11-30T18:27:15.988Z,13.88
2022-11-30T18:29:45.113Z,15.23
2022-11-30T18:32:15.463Z,19.20
2022-11-30T18:34:49.930Z,14.07
2022-11-30T18:37:22.668Z,16.10
2022-11-30T18:39:52.048Z,14.88
2022-11-30T18:42:23.403Z,15.95
2022-11-30T18:44:54.653Z,21.27
2022-11-30T18:47:25.625Z,18.50
2022-11-30T18:49:55.866Z,21.83
2022-11-30T18:52:27.824Z,20.05
2022-11-30T18:55:01.199Z,17.50
2022-11-30T18:57:33.291Z,25.85
2022-11-30T19:00:03.897Z,19.20
2022-11-30T19:02:46.579Z,22.83
2022-11-30T19:05:33.344Z,20.58
2022-11-30T19:08:13.368Z,17.65
2022-11-30T19:10:43.873Z,17.00
2022-11-30T19:13:16.208Z,16.35
2022-11-30T19:15:50.795Z,22.55
2022-11-30T19:18:23.502Z,23.38
2022-11-30T19:20:53.850Z,17.95
2022-11-30T19:23:24.892Z,21.08
2022-11-30T19:26:01.252Z,17.00
2022-11-30T19:28:38.573Z,20.48
2022-11-30T19:31:15.309Z,23.77
2022-11-30T19:33:50.275Z,18.98
2022-11-30T19:36:25.263Z,22.60
2022-11-30T19:39:00.554Z,19.83
2022-11-30T19:41:31.661Z,19.80
2022-11-30T19:44:14.647Z,24.15
2022-11-30T19:46:45.333Z,22.33
2022-11-30T19:49:20.076Z,18.13
2022-11-30T19:51:53.914Z,19.42
2022-11-30T19:54:25.741Z,19.27
2022-11-30T19:56:58.628Z,21.65
2022-11-30T19:59:30.911Z,17.65
2022-11-30T20:02:02.068Z,18.40
2022-11-30T20:04:32.192Z,17.70
2022-11-30T20:07:03.583Z,18.60
2022-11-30T20:09:35.139Z,26.02
2022-11-30T20:12:06.034Z,15.48
2022-11-30T20:14:40.784Z,22.80
2022-11-30T20:17:10.818Z,17.95
2022-11-30T20:19:44.212Z,22.85
2022-11-30T20:22:15.314Z,19.60
2022-11-30T20:24:46.777Z,22.52
2022-11-30T20:27:22.707Z,22.48
2022-11-30T20:29:56.225Z,17.63
2022-11-30T20:32:28.942Z,18.83
2022-11-30T20:34:59.770Z,23.10
2022-11-30T20:37:30.228Z,18.15
2022-11-30T20:40:00.641Z,19.45
2022-11-30T20:42:34.373Z,22.23
2022-11-30T20:45:08.679Z,24.45
2022-11-30T20:47:38.285Z,19.67
2022-11-30T20:50:09.995Z,21.85
2022-11-30T20:52:41.546Z,19.38
2022-11-30T20:55:11.842Z,23.65
2022-11-30T20:57:44.134Z,18.73
2022-11-30T21:00:22.545Z,21.55
2022-11-30T21:02:56.117Z,17.35
2022-11-30T21:05:25.730Z,21.75
2022-11-30T21:07:55.373Z,18.67
2022-11-30T21:10:24.863Z,17.50
2022-11-30T21:12:54.230Z,21.65
2022-11-30T21:15:25.145Z,22.10
2022-11-30T21:17:54.034Z,19.10
2022-11-30T21:20:23.302Z,28.92
2022-11-30T21:22:52.959Z,24.95
2022-11-30T21:25:27.275Z,23.67
2022-11-30T21:27:55.690Z,23.50
2022-11-30T21:30:26.775Z,25.35
2022-11-30T21:32:55.411Z,22.52
2022-11-30T21:35:24.549Z,24.83
2022-11-30T21:37:53.130Z,23.70
2022-11-30T21:40:21.544Z,25.35
2022-11-30T21:42:50.017Z,22.83
2022-11-30T21:45:18.624Z,20.27
2022-11-30T21:47:48.383Z,22.73
2022-11-30T21:50:16.988Z,21.50
2022-11-30T21:52:45.422Z,21.83
2022-11-30T21:55:13.858Z,18.92
2022-11-30T21:57:42.285Z,25.73
2022-11-30T22:00:14.478Z,25.35
2022-11-30T22:02:42.927Z,24.83
2022-11-30T22:05:13.105Z,26.35
2022-11-30T22:07:41.584Z,27.20
2022-11-30T22:10:11.107Z,24.13
2022-11-30T22:12:39.475Z,30.65
2022-11-30T22:15:09.565Z,23.42
2022-11-30T22:17:37.967Z,20.05
2022-11-30T22:20:08.358Z,27.83
2022-11-30T22:22:38.314Z,25.30
2022-11-30T22:25:08.165Z,23.55
2022-11-30T22:27:38.619Z,21.40
2022-11-30T22:30:09.266Z,27.38
2022-11-30T22:32:43.291Z,31.17
2022-11-30T22:35:11.965Z,25.65
2022-11-30T22:37:41.712Z,27.73
2022-11-30T22:40:12.167Z,23.55
2022-11-30T22:42:40.526Z,25.02
2022-11-30T22:45:10.610Z,21.83
2022-11-30T22:47:38.958Z,22.92
2022-11-30T22:50:08.930Z,24.15
2022-11-30T22:53:02.023Z,22.50
2022-11-30T22:55:27.251Z,25.52
2022-11-30T22:57:56.178Z,29.15
2022-11-30T23:00:24.810Z,23.77
2022-11-30T23:02:53.341Z,23.52
2022-11-30T23:05:21.817Z,23.92
2022-11-30T23:07:50.297Z,22.05
2022-11-30T23:10:19.258Z,22.65
2022-11-30T23:12:59.535Z,26.88
2022-11-30T23:15:28.414Z,28.02
2022-11-30T23:17:56.799Z,26.00
2022-11-30T23:20:25.179Z,24.75
2022-11-30T23:22:53.534Z,23.77
2022-11-30T23:25:22.356Z,25.25
2022-11-30T23:27:52.111Z,22.98
2022-11-30T23:30:20.678Z,23.48
2022-11-30T23:32:49.071Z,27.02
2022-11-30T23:35:17.620Z,25.38
2022-11-30T23:37:45.945Z,28.45
2022-11-30T23:40:15.420Z,21.40
2022-11-30T23:42:43.815Z,28.63
2022-11-30T23:45:14.227Z,21.02
2022-11-30T23:47:42.666Z,23.73
2022-11-30T23:50:12.611Z,20.45
2022-11-30T23:52:40.996Z,24.98
2022-11-30T23:55:10.974Z,23.50
2022-11-30T23:57:39.315Z,29.67
